Time;durP1;ratioP1;P1;durP2;ratioP2;P2;SDS_P1;SDS_P2;PMS_P1;PMS_P2;Temp;Humidity;BMP_temperature;BMP_pressure;BME280_temperature;BME280_humidity;BME280_pressure;Samples;Min_cycle;Max_cycle;Signal;HPM_P1;HPM_P2
2023/09/24 00:00:36;;;;;;;1.60;1.50;;;11.00;99.90;;;;;;5081764;28;21093;-72
2023/09/24 00:03:05;;;;;;;4.97;1.90;;;11.00;99.90;;;;;;5097361;27;20735;-72
2023/09/24 00:05:32;;;;;;;2.00;1.60;;;11.00;99.90;;;;;;5101178;27;20632;-72
2023/09/24 00:08:00;;;;;;;1.53;1.40;;;11.10;99.90;;;;;;5095850;27;21242;-72
2023/09/24 00:10:27;;;;;;;1.93;1.83;;;11.10;99.90;;;;;;5105289;27;20656;-72
2023/09/24 00:12:56;;;;;;;1.00;0.90;;;11.00;99.90;;;;;;5102058;27;20738;-72
2023/09/24 00:15:23;;;;;;;3.03;1.30;;;11.00;99.90;;;;;;5102766;27;20731;-71
2023/09/24 00:17:50;;;;;;;1.97;1.87;;;11.00;99.90;;;;;;5098382;27;20616;-72
2023/09/24 00:20:18;;;;;;;2.57;1.67;;;11.00;99.90;;;;;;5105101;27;20628;-72
2023/09/24 00:22:46;;;;;;;1.73;1.60;;;10.90;99.90;;;;;;5101434;27;21180;-72
2023/09/24 00:25:15;;;;;;;2.13;1.97;;;10.80;99.90;;;;;;5083856;28;21896;-72
2023/09/24 00:27:42;;;;;;;1.63;1.53;;;10.70;99.90;;;;;;5087989;28;21200;-72
2023/09/24 00:30:13;;;;;;;1.77;1.57;;;10.60;99.90;;;;;;5101556;27;21164;-72
2023/09/24 00:32:39;;;;;;;1.70;1.60;;;10.60;99.90;;;;;;5106024;27;20627;-72
2023/09/24 00:35:08;;;;;;;2.10;1.90;;;10.60;99.90;;;;;;5104127;27;20631;-72
2023/09/24 00:37:35;;;;;;;1.60;1.50;;;10.60;99.90;;;;;;5105253;27;20631;-72
2023/09/24 00:40:02;;;;;;;1.43;1.33;;;10.70;99.90;;;;;;5091744;27;20999;-72
2023/09/24 00:42:31;;;;;;;1.60;1.50;;;10.60;99.90;;;;;;5098047;27;21213;-72
2023/09/24 00:44:58;;;;;;;2.83;2.10;;;10.60;99.90;;;;;;5104630;27;20807;-72
2023/09/24 00:47:26;;;;;;;1.57;1.43;;;10.50;99.90;;;;;;5105708;27;20628;-72
2023/09/24 00:49:54;;;;;;;4.77;1.67;;;10.50;99.90;;;;;;5092366;27;20658;-72
2023/09/24 00:52:21;;;;;;;3.10;2.10;;;10.40;99.90;;;;;;5096925;27;20641;-72
2023/09/24 00:54:48;;;;;;;1.70;1.57;;;10.50;99.90;;;;;;5099083;27;20634;-72
2023/09/24 00:57:15;;;;;;;2.03;1.83;;;10.40;99.90;;;;;;5101845;27;20669;-72
2023/09/24 00:59:45;;;;;;;2.20;1.80;;;10.40;99.90;;;;;;5090933;27;20635;-72
2023/09/24 01:02:13;;;;;;;1.30;1.10;;;10.40;99.90;;;;;;5085316;28;20642;-72
2023/09/24 01:04:41;;;;;;;2.37;2.20;;;10.40;99.90;;;;;;5093186;27;21216;-71
2023/09/24 01:07:08;;;;;;;1.63;1.53;;;10.40;99.90;;;;;;5099531;27;20734;-72
2023/09/24 01:09:36;;;;;;;2.00;1.80;;;10.40;99.90;;;;;;5100162;27;21300;-72
2023/09/24 01:12:04;;;;;;;1.87;1.77;;;10.40;99.90;;;;;;5105412;27;20642;-72
2023/09/24 01:14:34;;;;;;;2.10;1.93;;;10.40;99.90;;;;;;5082809;27;20625;-72
2023/09/24 01:17:03;;;;;;;2.40;2.20;;;10.30;99.90;;;;;;5097926;27;20664;-72
2023/09/24 01:19:34;;;;;;;2.00;1.80;;;10.20;99.90;;;;;;5098582;27;20622;-72
2023/09/24 01:22:04;;;;;;;1.83;1.73;;;10.20;99.90;;;;;;5094963;27;20704;-72
2023/09/24 01:24:33;;;;;;;2.00;1.80;;;10.20;99.90;;;;;;5103577;27;20620;-71
2023/09/24 01:27:01;;;;;;;2.03;1.93;;;10.10;99.90;;;;;;5100027;27;20624;-72
2023/09/24 01:29:30;;;;;;;2.20;1.87;;;10.00;99.90;;;;;;5100605;27;20696;-72
2023/09/24 01:32:01;;;;;;;2.63;2.23;;;10.00;99.90;;;;;;5099874;27;21271;-72
2023/09/24 01:34:30;;;;;;;3.93;2.10;;;10.00;99.90;;;;;;5103687;27;20727;-72
2023/09/24 01:37:00;;;;;;;2.47;1.83;;;10.00;99.90;;;;;;5097364;27;20636;-72
2023/09/24 01:39:32;;;;;;;2.17;1.97;;;10.00;99.90;;;;;;5084492;28;20812;-72
2023/09/24 01:42:00;;;;;;;2.53;1.70;;;10.00;99.90;;;;;;5084823;28;20619;-72
2023/09/24 01:44:28;;;;;;;1.60;1.50;;;10.10;99.90;;;;;;5103153;27;20635;-72
2023/09/24 01:46:56;;;;;;;1.60;1.50;;;10.10;99.90;;;;;;5103660;27;20612;-72
2023/09/24 01:49:24;;;;;;;1.83;1.70;;;10.10;99.90;;;;;;5091944;27;22054;-72
2023/09/24 01:51:51;;;;;;;1.70;1.60;;;10.00;99.90;;;;;;5094831;27;20644;-72
2023/09/24 01:54:19;;;;;;;2.63;2.00;;;10.00;99.90;;;;;;5094273;27;20692;-72
2023/09/24 01:56:47;;;;;;;1.90;1.80;;;10.00;99.90;;;;;;5096408;27;20714;-72
2023/09/24 01:59:14;;;;;;;2.20;1.87;;;9.90;99.90;;;;;;5094902;27;21333;-72
2023/09/24 02:01:41;;;;;;;2.17;1.90;;;9.90;99.90;;;;;;5089771;27;20636;-72
2023/09/24 02:04:08;;;;;;;2.37;1.60;;;9.90;99.90;;;;;;5081762;28;20624;-72
2023/09/24 02:06:35;;;;;;;1.97;1.77;;;9.70;99.90;;;;;;5086446;27;20636;-72
2023/09/24 02:09:02;;;;;;;1.43;1.33;;;9.80;99.90;;;;;;5098077;27;20753;-72
2023/09/24 02:11:29;;;;;;;1.70;1.60;;;9.70;99.90;;;;;;5092993;27;21727;-72
2023/09/24 02:13:59;;;;;;;1.60;1.50;;;9.60;99.90;;;;;;5093532;27;21192;-72
2023/09/24 02:16:27;;;;;;;1.60;1.50;;;9.60;99.90;;;;;;5083803;28;20632;-72
2023/09/24 02:18:56;;;;;;;1.40;1.30;;;9.60;99.90;;;;;;5099654;27;20797;-72
2023/09/24 02:21:24;;;;;;;2.50;1.60;;;9.60;99.90;;;;;;5096569;27;20869;-72
2023/09/24 02:23:54;;;;;;;1.87;1.60;;;9.60;99.90;;;;;;5094465;27;20644;-72
2023/09/24 02:26:22;;;;;;;2.47;1.97;;;9.60;99.90;;;;;;5091441;27;21050;-72
2023/09/24 02:28:49;;;;;;;1.60;1.50;;;9.60;99.90;;;;;;5087962;28;20968;-72
2023/09/24 02:31:18;;;;;;;1.80;1.70;;;9.70;99.90;;;;;;5097884;27;20657;-72
2023/09/24 02:33:46;;;;;;;1.53;1.37;;;9.70;99.90;;;;;;5100166;27;20631;-72
2023/09/24 02:36:14;;;;;;;1.77;1.67;;;9.70;99.90;;;;;;5101474;27;20876;-72
2023/09/24 02:38:41;;;;;;;1.83;1.50;;;9.60;99.90;;;;;;5100205;27;20678;-72
2023/09/24 02:41:10;;;;;;;2.00;1.30;;;9.60;99.90;;;;;;5080437;28;20818;-72
2023/09/24 02:43:38;;;;;;;1.90;1.80;;;9.60;99.90;;;;;;5098364;27;20627;-72
2023/09/24 02:46:05;;;;;;;4.37;1.90;;;9.60;99.90;;;;;;5097718;27;20633;-72
2023/09/24 02:48:39;;;;;;;2.33;2.10;;;9.70;99.90;;;;;;5089602;27;20690;-72
2023/09/24 02:51:08;;;;;;;1.23;1.20;;;9.70;99.90;;;;;;5090489;27;21295;-72
2023/09/24 02:53:36;;;;;;;2.10;1.90;;;9.80;99.90;;;;;;5092927;27;20623;-72
2023/09/24 02:56:03;;;;;;;2.50;1.87;;;9.70;99.90;;;;;;5096492;27;21122;-71
2023/09/24 02:58:31;;;;;;;2.50;2.30;;;9.60;99.90;;;;;;5095447;27;21016;-72
2023/09/24 03:00:57;;;;;;;2.90;1.77;;;9.70;99.90;;;;;;5102057;27;20618;-72
2023/09/24 03:03:25;;;;;;;2.30;1.40;;;9.70;99.90;;;;;;5092268;27;21286;-72
2023/09/24 03:05:53;;;;;;;2.60;1.93;;;9.60;99.90;;;;;;5093039;28;22024;-72
2023/09/24 03:08:20;;;;;;;1.63;1.53;;;9.60;99.90;;;;;;5089486;28;20631;-72
2023/09/24 03:10:47;;;;;;;2.30;1.97;;;9.50;99.90;;;;;;5094671;28;20658;-72
2023/09/24 03:13:14;;;;;;;1.53;1.43;;;9.30;99.90;;;;;;5102807;28;20724;-72
2023/09/24 03:15:41;;;;;;;2.57;2.17;;;9.40;99.90;;;;;;5102408;28;20624;-71
2023/09/24 03:18:08;;;;;;;1.50;1.40;;;9.30;99.90;;;;;;5097099;28;20628;-72
2023/09/24 03:20:34;;;;;;;1.63;1.53;;;9.40;99.90;;;;;;5090970;28;20619;-72
2023/09/24 03:23:08;;;;;;;1.60;1.50;;;9.30;99.90;;;;;;5098038;28;20651;-72
2023/09/24 03:25:35;;;;;;;2.03;1.70;;;9.30;99.90;;;;;;5101403;28;21779;-72
2023/09/24 03:28:02;;;;;;;2.43;1.50;;;9.40;99.90;;;;;;5090217;28;20628;-72
2023/09/24 03:30:29;;;;;;;1.77;1.60;;;9.50;99.90;;;;;;5082883;28;20691;-72
2023/09/24 03:32:58;;;;;;;2.27;1.97;;;9.50;99.90;;;;;;5098966;28;20679;-71
2023/09/24 03:35:26;;;;;;;1.63;1.53;;;9.60;99.90;;;;;;5101888;27;21047;-72
2023/09/24 03:37:54;;;;;;;1.70;1.60;;;9.40;99.90;;;;;;5104652;27;20848;-72
2023/09/24 03:40:24;;;;;;;2.20;1.80;;;9.50;99.90;;;;;;5095469;27;21068;-72
2023/09/24 03:42:51;;;;;;;1.90;1.80;;;9.50;99.90;;;;;;5091186;27;20616;-72
2023/09/24 03:45:19;;;;;;;1.83;1.60;;;9.50;99.90;;;;;;5101680;27;20725;-72
2023/09/24 03:47:47;;;;;;;1.53;1.43;;;9.50;99.90;;;;;;5101222;27;20986;-72
2023/09/24 03:50:17;;;;;;;1.57;1.30;;;9.50;99.90;;;;;;5100676;27;20792;-72
2023/09/24 03:52:44;;;;;;;2.17;1.70;;;9.50;99.90;;;;;;5105535;27;21006;-72
2023/09/24 03:55:11;;;;;;;2.17;1.80;;;9.50;99.90;;;;;;5101373;27;20620;-72
2023/09/24 03:57:39;;;;;;;2.63;2.43;;;9.50;99.90;;;;;;5090840;27;20984;-72
2023/09/24 04:00:11;;;;;;;1.87;1.77;;;9.50;99.90;;;;;;5095876;27;21210;-72
2023/09/24 04:02:38;;;;;;;2.60;2.40;;;9.50;99.90;;;;;;5096573;27;20658;-72
2023/09/24 04:05:08;;;;;;;5.73;2.27;;;9.40;99.90;;;;;;5093367;27;20909;-72
2023/09/24 04:07:37;;;;;;;1.87;1.77;;;9.30;99.90;;;;;;5095063;27;20642;-72
2023/09/24 04:10:04;;;;;;;3.00;1.37;;;9.20;99.90;;;;;;5092199;27;20652;-72
2023/09/24 04:12:33;;;;;;;3.50;2.10;;;9.20;99.90;;;;;;5096013;27;20640;-72
2023/09/24 04:15:01;;;;;;;1.80;1.70;;;9.20;99.90;;;;;;5101111;27;20632;-72
2023/09/24 04:17:28;;;;;;;1.67;1.57;;;9.00;99.90;;;;;;5091177;27;20620;-72
2023/09/24 04:19:54;;;;;;;2.00;1.80;;;9.00;99.90;;;;;;5090194;28;20624;-72
2023/09/24 04:22:22;;;;;;;2.43;1.73;;;9.00;99.90;;;;;;5101154;27;20626;-72
2023/09/24 04:24:53;;;;;;;2.63;2.40;;;9.10;99.90;;;;;;5097062;27;20624;-72
2023/09/24 04:27:20;;;;;;;1.87;1.77;;;9.10;99.90;;;;;;5099593;27;20621;-72
2023/09/24 04:29:47;;;;;;;3.40;2.00;;;9.00;99.90;;;;;;5100660;27;20629;-72
2023/09/24 04:32:16;;;;;;;1.67;1.57;;;9.10;99.90;;;;;;5083205;28;21233;-72
2023/09/24 04:34:43;;;;;;;2.20;1.77;;;9.00;99.90;;;;;;5088065;27;20627;-72
2023/09/24 04:37:11;;;;;;;2.93;1.80;;;9.00;99.90;;;;;;5099718;27;20616;-72
2023/09/24 04:39:38;;;;;;;2.20;2.03;;;9.00;99.90;;;;;;5097933;27;21288;-73
2023/09/24 04:42:06;;;;;;;1.47;1.30;;;9.00;99.90;;;;;;5097185;27;20617;-72
2023/09/24 04:44:33;;;;;;;1.60;1.50;;;9.00;99.90;;;;;;5083893;27;20717;-72
2023/09/24 04:46:59;;;;;;;1.50;1.40;;;8.90;99.90;;;;;;5101127;27;20626;-72
2023/09/24 04:49:28;;;;;;;2.10;1.80;;;8.90;99.90;;;;;;5101501;27;20633;-72
2023/09/24 04:51:55;;;;;;;2.40;2.20;;;8.80;99.90;;;;;;5105126;27;21301;-72
2023/09/24 04:54:22;;;;;;;1.97;1.77;;;8.80;99.90;;;;;;5093733;27;20635;-72
2023/09/24 04:56:49;;;;;;;1.57;1.47;;;8.80;99.90;;;;;;5094685;27;20701;-72
2023/09/24 04:59:16;;;;;;;1.90;1.80;;;8.80;99.90;;;;;;5092661;27;20622;-72
2023/09/24 05:01:42;;;;;;;2.40;1.47;;;8.80;99.90;;;;;;5090770;27;20977;-72
2023/09/24 05:04:10;;;;;;;1.77;1.50;;;8.80;99.90;;;;;;5095147;27;20620;-72
2023/09/24 05:06:38;;;;;;;2.23;2.00;;;8.80;99.90;;;;;;5101039;27;21227;-72
2023/09/24 05:09:05;;;;;;;1.30;1.20;;;8.80;99.90;;;;;;5081624;28;20692;-72
2023/09/24 05:11:31;;;;;;;1.93;1.70;;;8.70;99.90;;;;;;5098593;27;20662;-72
2023/09/24 05:13:58;;;;;;;2.10;1.90;;;8.70;99.90;;;;;;5100176;27;20620;-73
2023/09/24 05:16:28;;;;;;;1.87;1.47;;;8.70;99.90;;;;;;5094471;27;21012;-73
2023/09/24 05:18:54;;;;;;;2.40;1.83;;;8.70;99.90;;;;;;5105894;27;20622;-73
2023/09/24 05:21:21;;;;;;;2.70;2.17;;;8.70;99.90;;;;;;5098482;27;21010;-73
2023/09/24 05:23:49;;;;;;;2.33;1.60;;;8.70;99.90;;;;;;5088073;27;20631;-72
2023/09/24 05:26:16;;;;;;;2.77;2.57;;;8.70;99.90;;;;;;5093728;27;20631;-72
2023/09/24 05:28:43;;;;;;;1.50;1.40;;;8.70;99.90;;;;;;5099977;27;21198;-72
2023/09/24 05:31:10;;;;;;;2.37;1.70;;;8.70;99.90;;;;;;5092722;27;20660;-72
2023/09/24 05:33:38;;;;;;;2.17;1.90;;;8.70;99.90;;;;;;5098043;27;20699;-72
2023/09/24 05:36:05;;;;;;;1.77;1.50;;;8.60;99.90;;;;;;5088617;27;20739;-72
2023/09/24 05:38:32;;;;;;;2.40;1.80;;;8.60;99.90;;;;;;5093836;27;21063;-73
2023/09/24 05:41:00;;;;;;;1.63;1.53;;;8.60;99.90;;;;;;5101925;27;20639;-72
2023/09/24 05:43:27;;;;;;;1.90;1.80;;;8.60;99.90;;;;;;5105291;27;20624;-72
2023/09/24 05:45:54;;;;;;;1.83;1.73;;;8.70;99.90;;;;;;5080902;28;21263;-69
2023/09/24 05:48:20;;;;;;;6.33;2.10;;;8.70;99.90;;;;;;5095836;27;20622;-69
2023/09/24 05:50:47;;;;;;;2.20;1.50;;;8.80;99.90;;;;;;5092357;27;21238;-70
2023/09/24 05:53:15;;;;;;;1.87;1.77;;;8.70;99.90;;;;;;5101491;27;20623;-70
2023/09/24 05:55:51;;;;;;;3.97;2.60;;;8.60;99.90;;;;;;5098298;27;20644;-70
2023/09/24 05:58:20;;;;;;;2.80;2.37;;;8.70;99.90;;;;;;5076370;28;20628;-70
2023/09/24 06:00:47;;;;;;;2.40;2.20;;;8.80;99.90;;;;;;5096147;27;20653;-69
2023/09/24 06:03:14;;;;;;;3.17;1.43;;;8.80;99.90;;;;;;5099522;27;20700;-68
2023/09/24 06:05:44;;;;;;;2.13;1.90;;;8.90;99.90;;;;;;5100734;27;20635;-70
2023/09/24 06:08:11;;;;;;;2.20;2.00;;;9.00;99.90;;;;;;5091186;27;21591;-69
2023/09/24 06:10:44;;;;;;;2.27;2.07;;;9.10;99.90;;;;;;5102384;27;20661;-69
2023/09/24 06:13:11;;;;;;;1.53;1.43;;;9.10;99.90;;;;;;5084447;28;20639;-68
2023/09/24 06:15:39;;;;;;;2.10;1.97;;;9.20;99.90;;;;;;5093739;27;20628;-69
2023/09/24 06:18:06;;;;;;;2.17;1.90;;;9.30;99.90;;;;;;5093770;27;20616;-69
2023/09/24 06:20:37;;;;;;;1.90;1.80;;;9.40;99.90;;;;;;5101134;27;21210;-69
2023/09/24 06:23:04;;;;;;;3.10;2.80;;;9.50;99.90;;;;;;5100165;27;20616;-69
2023/09/24 06:25:31;;;;;;;2.00;1.90;;;9.60;99.90;;;;;;5082548;28;20668;-69
2023/09/24 06:27:58;;;;;;;2.10;2.00;;;9.70;99.90;;;;;;5090532;27;20642;-69
2023/09/24 06:30:24;;;;;;;2.53;2.30;;;9.90;99.90;;;;;;5083777;28;20880;-69
2023/09/24 06:32:52;;;;;;;2.37;2.17;;;9.90;99.90;;;;;;5089811;27;20640;-69
2023/09/24 06:35:19;;;;;;;2.20;1.80;;;10.00;99.90;;;;;;5082773;28;20628;-69
2023/09/24 06:37:46;;;;;;;3.30;2.10;;;10.10;99.90;;;;;;5095765;27;20642;-69
2023/09/24 06:40:13;;;;;;;2.23;2.03;;;10.20;99.90;;;;;;5098323;27;20632;-71
2023/09/24 06:42:42;;;;;;;2.37;2.17;;;10.30;99.90;;;;;;5102776;27;20619;-71
2023/09/24 06:45:09;;;;;;;2.40;2.20;;;10.50;99.90;;;;;;5103536;27;20734;-71
2023/09/24 06:47:36;;;;;;;2.07;1.97;;;10.70;99.90;;;;;;5079368;28;20628;-70
2023/09/24 06:50:05;;;;;;;1.80;1.70;;;10.80;99.90;;;;;;5091576;27;20625;-71
2023/09/24 06:52:32;;;;;;;1.80;1.70;;;10.90;99.90;;;;;;5092854;27;21366;-71
2023/09/24 06:54:59;;;;;;;2.00;1.90;;;11.10;99.90;;;;;;5099470;27;20627;-71
2023/09/24 06:57:26;;;;;;;2.07;1.80;;;11.30;99.90;;;;;;5098596;28;20647;-71
2023/09/24 06:59:53;;;;;;;2.33;2.17;;;11.30;99.90;;;;;;5080436;28;20624;-71
2023/09/24 07:02:23;;;;;;;2.27;2.03;;;11.40;99.90;;;;;;5094418;27;21038;-70
2023/09/24 07:04:50;;;;;;;2.97;2.60;;;11.40;99.90;;;;;;5095707;27;21201;-70
2023/09/24 07:07:21;;;;;;;2.73;2.50;;;11.40;99.90;;;;;;5096790;27;21754;-70
2023/09/24 07:09:48;;;;;;;2.90;2.10;;;11.60;99.90;;;;;;5095378;27;20629;-70
2023/09/24 07:12:16;;;;;;;11.20;2.23;;;11.70;99.90;;;;;;5080337;28;20674;-70
2023/09/24 07:14:43;;;;;;;2.20;1.97;;;11.90;99.90;;;;;;5095639;28;20647;-68
2023/09/24 07:17:10;;;;;;;2.57;2.37;;;12.00;99.90;;;;;;5097910;28;20627;-69
2023/09/24 07:19:37;;;;;;;1.90;1.80;;;12.10;99.90;;;;;;5089124;28;20624;-71
2023/09/24 07:22:03;;;;;;;3.13;2.60;;;12.20;99.90;;;;;;5100089;28;20630;-71
2023/09/24 07:24:32;;;;;;;2.30;2.10;;;12.40;99.90;;;;;;5095706;28;20636;-72
2023/09/24 07:27:02;;;;;;;2.13;2.03;;;12.70;99.90;;;;;;5087887;28;20625;-69
2023/09/24 07:29:29;;;;;;;2.50;2.30;;;12.90;99.90;;;;;;5087133;28;20655;-68
2023/09/24 07:31:56;;;;;;;4.00;2.33;;;13.00;99.90;;;;;;5100681;28;20657;-69
2023/09/24 07:34:23;;;;;;;2.37;2.00;;;13.00;99.90;;;;;;5102257;28;20622;-71
2023/09/24 07:36:50;;;;;;;2.60;2.40;;;13.00;99.90;;;;;;5078699;28;21728;-74
2023/09/24 07:39:17;;;;;;;3.37;2.43;;;13.10;99.90;;;;;;5093722;28;20635;-72
2023/09/24 07:41:46;;;;;;;3.60;2.83;;;13.20;99.90;;;;;;5087253;28;20654;-73
2023/09/24 07:44:13;;;;;;;2.50;2.23;;;13.40;99.90;;;;;;5089599;28;21017;-73
2023/09/24 07:46:40;;;;;;;3.10;2.90;;;13.50;99.90;;;;;;5099766;28;20722;-72
2023/09/24 07:49:07;;;;;;;2.53;2.33;;;13.50;99.90;;;;;;5080204;28;20620;-73
2023/09/24 07:51:33;;;;;;;2.30;2.10;;;13.60;99.90;;;;;;5090000;28;21063;-73
2023/09/24 07:54:01;;;;;;;2.33;2.10;;;13.70;99.90;;;;;;5095411;28;20651;-73
2023/09/24 07:56:27;;;;;;;2.10;1.90;;;13.70;99.90;;;;;;5097813;28;20677;-72
2023/09/24 07:58:56;;;;;;;3.03;2.73;;;13.80;99.90;;;;;;5094371;28;20622;-71
2023/09/24 08:01:24;;;;;;;2.57;2.37;;;13.90;99.90;;;;;;5094239;28;20616;-76
2023/09/24 08:03:52;;;;;;;3.23;2.27;;;14.00;99.90;;;;;;5095963;28;21168;-82
2023/09/24 08:06:22;;;;;;;2.47;2.23;;;14.00;99.90;;;;;;5095874;28;20613;-72
2023/09/24 08:08:48;;;;;;;2.20;2.00;;;13.90;99.90;;;;;;5091293;28;20933;-74
2023/09/24 08:11:29;;;;;;;2.13;1.70;;;14.00;99.90;;;;;;5097959;28;20822;-77
2023/09/24 08:13:57;;;;;;;2.70;2.17;;;14.00;99.90;;;;;;5080149;28;20633;-74
2023/09/24 08:16:24;;;;;;;2.60;2.33;;;14.10;99.90;;;;;;5094434;28;20613;-72
2023/09/24 08:18:51;;;;;;;2.00;1.80;;;14.40;99.90;;;;;;5094045;27;21063;-73
2023/09/24 08:21:18;;;;;;;1.60;1.50;;;14.40;99.10;;;;;;5093883;27;20823;-73
2023/09/24 08:23:47;;;;;;;2.23;2.00;;;14.50;98.60;;;;;;5098800;27;20632;-74
2023/09/24 08:26:14;;;;;;;1.73;1.60;;;14.60;99.00;;;;;;5084412;28;20631;-77
2023/09/24 08:28:46;;;;;;;1.97;1.40;;;14.70;98.40;;;;;;5085602;27;20617;-78
2023/09/24 08:31:20;;;;;;;2.03;1.63;;;14.80;98.20;;;;;;5099103;27;20736;-80
2023/09/24 08:33:49;;;;;;;1.73;1.63;;;14.90;98.00;;;;;;5100573;27;20853;-75
2023/09/24 08:36:34;;;;;;;2.70;2.40;;;14.90;97.80;;;;;;5102024;27;20623;-89
2023/09/24 08:39:04;;;;;;;1.57;1.47;;;14.90;98.80;;;;;;5082026;28;20640;-78
2023/09/24 08:41:31;;;;;;;1.67;1.57;;;15.00;98.50;;;;;;5081872;28;20628;-76
2023/09/24 08:44:04;;;;;;;2.73;1.50;;;15.20;97.90;;;;;;5095556;27;20738;-76
2023/09/24 08:46:42;;;;;;;1.50;1.30;;;15.00;97.60;;;;;;5099657;27;20628;-76
2023/09/24 08:49:10;;;;;;;2.17;1.33;;;15.30;97.00;;;;;;5094412;27;21075;-76
2023/09/24 08:51:46;;;;;;;2.73;2.13;;;15.50;95.90;;;;;;5085961;27;20654;-84
2023/09/24 08:54:14;;;;;;;1.40;1.30;;;15.60;95.10;;;;;;5099271;27;20710;-85
2023/09/24 08:56:41;;;;;;;1.83;1.60;;;15.80;94.70;;;;;;5097831;27;21255;-78
2023/09/24 08:59:29;;;;;;;2.53;1.00;;;15.80;94.10;;;;;;5094303;27;21099;-80
2023/09/24 09:02:10;;;;;;;1.50;1.40;;;16.10;93.20;;;;;;5088635;27;20682;-80
2023/09/24 09:04:52;;;;;;;2.53;1.60;;;16.00;92.80;;;;;;5081210;27;20749;-77
2023/09/24 09:07:32;;;;;;;1.10;1.10;;;16.10;93.30;;;;;;5088614;27;20639;-74
2023/09/24 09:10:03;;;;;;;1.30;1.20;;;16.10;93.50;;;;;;5094805;27;20613;-76
2023/09/24 09:12:39;;;;;;;1.83;1.73;;;16.30;92.70;;;;;;5095970;27;20649;-76
2023/09/24 09:15:32;;;;;;;1.53;1.43;;;16.20;92.30;;;;;;5080851;27;20639;-74
2023/09/24 09:18:00;;;;;;;12.13;1.60;;;16.40;92.30;;;;;;5085395;27;21000;-75
2023/09/24 09:20:58;;;;;;;1.60;1.50;;;16.60;92.90;;;;;;5096262;27;21067;-72
2023/09/24 09:23:35;;;;;;;2.17;1.50;;;16.60;91.80;;;;;;5094032;27;20644;-70
2023/09/24 09:26:04;;;;;;;2.00;1.80;;;16.70;91.00;;;;;;5091065;27;21199;-74
2023/09/24 09:28:34;;;;;;;2.73;1.33;;;16.80;91.00;;;;;;5091570;27;20619;-73
2023/09/24 09:31:02;;;;;;;2.30;1.60;;;16.80;91.70;;;;;;5095463;27;20667;-76
2023/09/24 09:33:34;;;;;;;2.33;1.20;;;16.90;90.70;;;;;;5097101;27;20648;-77
2023/09/24 09:36:02;;;;;;;3.43;1.40;;;16.90;90.90;;;;;;5099429;27;20635;-78
2023/09/24 09:38:29;;;;;;;1.50;1.37;;;16.90;91.50;;;;;;5100825;27;20698;-80
2023/09/24 09:40:57;;;;;;;1.53;1.43;;;17.10;91.20;;;;;;5078059;28;20924;-88
2023/09/24 09:43:30;;;;;;;1.73;1.60;;;17.00;91.10;;;;;;5096668;27;20640;-84
2023/09/24 09:45:57;;;;;;;1.67;1.57;;;17.00;91.20;;;;;;5095583;27;20770;-78
2023/09/24 09:48:45;;;;;;;1.47;1.37;;;17.00;90.60;;;;;;5091058;27;20611;-82
2023/09/24 09:51:25;;;;;;;2.47;1.53;;;17.10;90.30;;;;;;5091084;27;20683;-76
2023/09/24 09:53:55;;;;;;;1.80;1.33;;;17.00;90.60;;;;;;5095640;27;20695;-74
2023/09/24 09:56:23;;;;;;;1.20;1.10;;;17.00;90.60;;;;;;5093560;27;20630;-78
2023/09/24 09:58:53;;;;;;;1.37;1.27;;;17.10;90.60;;;;;;5092484;27;20972;-75
2023/09/24 10:01:22;;;;;;;1.43;1.33;;;17.30;89.50;;;;;;5087155;27;20634;-74
2023/09/24 10:03:52;;;;;;;1.47;1.07;;;17.20;88.50;;;;;;5096218;27;20624;-75
2023/09/24 10:06:21;;;;;;;1.47;1.13;;;17.30;89.40;;;;;;5099416;27;20693;-76
2023/09/24 10:08:49;;;;;;;1.93;1.40;;;17.40;87.40;;;;;;5097486;27;20617;-74
2023/09/24 10:11:49;;;;;;;1.90;1.63;;;17.30;87.00;;;;;;5096177;27;20624;-74
2023/09/24 10:14:32;;;;;;;2.30;1.47;;;17.30;86.30;;;;;;5085106;27;20638;-78
2023/09/24 10:17:24;;;;;;;1.53;1.20;;;17.40;87.40;;;;;;5098561;27;20608;-82
2023/09/24 10:19:53;;;;;;;3.47;1.40;;;17.50;89.30;;;;;;5089338;27;20633;-81
2023/09/24 10:22:31;;;;;;;2.03;1.83;;;17.60;87.30;;;;;;5090470;27;20750;-73
2023/09/24 10:24:59;;;;;;;2.73;1.23;;;17.50;89.10;;;;;;5101881;27;20704;-76
2023/09/24 10:27:28;;;;;;;1.17;0.97;;;17.60;87.40;;;;;;5095337;27;21369;-77
2023/09/24 10:30:08;;;;;;;4.17;2.03;;;17.40;86.40;;;;;;5101315;27;20629;-77
2023/09/24 10:32:49;;;;;;;1.30;1.20;;;17.40;84.80;;;;;;5098450;27;20672;-75
2023/09/24 10:35:18;;;;;;;3.93;1.53;;;17.60;84.50;;;;;;5083980;28;21191;-79
2023/09/24 10:38:02;;;;;;;1.60;1.20;;;17.70;81.10;;;;;;5082678;28;20664;-81
2023/09/24 10:40:30;;;;;;;1.40;1.10;;;17.70;81.00;;;;;;5105439;27;20633;-77
2023/09/24 10:43:14;;;;;;;1.57;1.23;;;17.60;82.20;;;;;;5094167;27;21462;-76
2023/09/24 10:45:42;;;;;;;1.60;1.50;;;17.70;82.40;;;;;;5096706;27;20676;-81
2023/09/24 10:48:09;;;;;;;2.43;1.53;;;17.80;83.00;;;;;;5094327;27;20718;-83
2023/09/24 10:50:39;;;;;;;0.90;0.80;;;17.60;83.70;;;;;;5098013;27;20624;-83
2023/09/24 10:53:06;;;;;;;2.53;1.50;;;17.60;81.40;;;;;;5088551;27;20648;-87
2023/09/24 10:55:35;;;;;;;1.30;1.20;;;17.60;80.20;;;;;;5079641;28;20723;-78
2023/09/24 10:58:03;;;;;;;1.10;1.00;;;17.40;83.50;;;;;;5092809;28;20616;-77
2023/09/24 11:00:32;;;;;;;2.30;2.13;;;17.40;85.40;;;;;;5091414;27;20723;-76
2023/09/24 11:03:00;;;;;;;1.13;1.03;;;17.50;83.70;;;;;;5104104;27;20721;-81
2023/09/24 11:05:29;;;;;;;1.63;1.53;;;17.70;82.20;;;;;;5092073;27;20632;-77
2023/09/24 11:07:58;;;;;;;1.13;1.03;;;17.80;85.00;;;;;;5093293;27;20776;-76
2023/09/24 11:10:26;;;;;;;1.30;1.20;;;17.90;80.60;;;;;;5081735;28;20633;-76
2023/09/24 11:12:54;;;;;;;1.17;1.03;;;18.10;81.00;;;;;;5090957;28;20656;-74
2023/09/24 11:15:23;;;;;;;1.63;1.13;;;18.10;81.90;;;;;;5089811;27;20632;-72
2023/09/24 11:17:51;;;;;;;1.10;0.97;;;18.00;81.40;;;;;;5086936;28;20946;-71
2023/09/24 11:20:21;;;;;;;1.50;1.40;;;18.10;81.70;;;;;;5089997;28;20777;-74
2023/09/24 11:22:56;;;;;;;1.90;1.63;;;18.40;80.90;;;;;;5097340;28;20621;-72
2023/09/24 11:25:25;;;;;;;1.30;1.13;;;18.50;81.50;;;;;;5091992;28;20643;-73
2023/09/24 11:27:52;;;;;;;1.20;1.10;;;18.40;80.10;;;;;;5101964;28;20958;-73
2023/09/24 11:30:22;;;;;;;4.20;1.60;;;18.30;81.30;;;;;;5092766;28;20977;-73
2023/09/24 11:32:50;;;;;;;4.07;1.27;;;18.20;81.30;;;;;;5084264;28;20673;-73
2023/09/24 11:35:18;;;;;;;3.07;1.40;;;18.20;81.30;;;;;;5098296;28;21188;-79
2023/09/24 11:37:53;;;;;;;1.70;1.33;;;18.20;82.90;;;;;;5091821;28;20625;-75
2023/09/24 11:40:26;;;;;;;0.90;0.90;;;18.00;81.20;;;;;;5093802;28;20757;-73
2023/09/24 11:42:56;;;;;;;1.20;1.10;;;17.80;84.00;;;;;;5099811;28;21916;-72
2023/09/24 11:45:43;;;;;;;1.47;1.37;;;17.70;84.80;;;;;;5092760;28;20627;-72
2023/09/24 11:48:13;;;;;;;2.03;1.30;;;17.80;83.90;;;;;;5094677;28;22131;-72
2023/09/24 11:50:41;;;;;;;2.10;1.43;;;17.90;83.30;;;;;;5086629;28;20620;-74
2023/09/24 11:53:09;;;;;;;1.70;1.10;;;17.80;84.20;;;;;;5095718;28;20639;-72
2023/09/24 11:56:08;;;;;;;1.77;1.33;;;18.00;82.80;;;;;;5100166;27;20620;-71
2023/09/24 11:58:36;;;;;;;1.17;1.07;;;18.20;82.10;;;;;;5077353;27;20750;-72
2023/09/24 12:01:04;;;;;;;1.60;1.50;;;18.30;80.70;;;;;;5099179;27;20757;-73
2023/09/24 12:03:31;;;;;;;1.30;1.20;;;18.40;77.30;;;;;;5097452;27;21183;-74
2023/09/24 12:05:58;;;;;;;1.10;0.80;;;18.30;77.40;;;;;;5093274;27;20778;-74
2023/09/24 12:08:24;;;;;;;1.43;1.30;;;18.40;81.30;;;;;;5096344;27;20704;-76
2023/09/24 12:10:53;;;;;;;1.67;1.30;;;18.50;80.70;;;;;;5091866;27;20621;-76
2023/09/24 12:13:19;;;;;;;0.80;0.80;;;18.70;78.60;;;;;;5102560;27;21330;-75
2023/09/24 12:15:46;;;;;;;2.13;1.33;;;18.70;77.30;;;;;;5093753;27;21183;-75
2023/09/24 12:18:13;;;;;;;3.53;1.83;;;18.60;76.30;;;;;;5100680;27;20631;-77
2023/09/24 12:20:42;;;;;;;1.70;1.43;;;18.40;75.90;;;;;;5078266;28;20781;-77
2023/09/24 12:23:09;;;;;;;1.97;1.60;;;18.30;76.60;;;;;;5095288;27;20624;-77
2023/09/24 12:25:37;;;;;;;3.70;1.37;;;18.20;78.70;;;;;;5098121;27;20624;-77
2023/09/24 12:28:06;;;;;;;1.43;1.10;;;18.20;77.40;;;;;;5099044;27;20639;-77
2023/09/24 12:30:34;;;;;;;1.47;1.33;;;18.10;76.60;;;;;;5098452;27;20620;-77
2023/09/24 12:33:02;;;;;;;3.07;1.57;;;18.30;73.80;;;;;;5091490;27;20663;-77
2023/09/24 12:35:30;;;;;;;1.80;1.40;;;18.20;74.50;;;;;;5095192;27;20628;-77
2023/09/24 12:37:56;;;;;;;1.20;1.10;;;18.30;75.60;;;;;;5096509;27;20627;-76
2023/09/24 12:40:25;;;;;;;1.83;1.20;;;18.30;73.40;;;;;;5080279;27;21389;-76
2023/09/24 12:42:53;;;;;;;1.40;1.30;;;18.20;74.30;;;;;;5105071;27;20633;-75
2023/09/24 12:45:24;;;;;;;1.03;0.90;;;18.30;74.40;;;;;;5078570;27;20735;-76
2023/09/24 12:47:50;;;;;;;1.50;1.30;;;18.30;73.10;;;;;;5092127;27;20628;-75
2023/09/24 12:50:17;;;;;;;1.93;1.00;;;18.20;73.10;;;;;;5098568;27;20645;-74
2023/09/24 12:52:45;;;;;;;2.20;1.40;;;18.30;72.50;;;;;;5091058;27;20844;-74
2023/09/24 12:55:15;;;;;;;2.40;1.10;;;18.30;70.90;;;;;;5100108;27;20535;-74
2023/09/24 12:57:43;;;;;;;1.47;1.17;;;18.40;70.10;;;;;;5091682;27;20656;-74
2023/09/24 13:00:11;;;;;;;3.40;1.47;;;18.40;71.30;;;;;;5091885;27;20648;-74